createdAt,value
2023-02-27T00:02:16.682Z,99.90
2023-02-27T00:04:44.234Z,99.90
2023-02-27T00:07:11.564Z,99.90
2023-02-27T00:09:40.162Z,99.90
2023-02-27T00:12:08.378Z,99.90
2023-02-27T00:14:35.684Z,99.90
2023-02-27T00:17:02.942Z,99.90
2023-02-27T00:19:30.108Z,99.90
2023-02-27T00:21:57.154Z,99.90
2023-02-27T00:24:24.306Z,99.90
2023-02-27T00:26:51.488Z,99.90
2023-02-27T00:29:19.728Z,99.90
2023-02-27T00:31:52.048Z,99.90
2023-02-27T00:34:19.187Z,99.90
2023-02-27T00:36:46.236Z,99.90
2023-02-27T00:39:14.497Z,99.90
2023-02-27T00:41:41.725Z,99.90
2023-02-27T00:44:08.814Z,99.90
2023-02-27T00:46:35.960Z,99.90
2023-02-27T00:49:03.074Z,99.90
2023-02-27T00:51:30.184Z,99.90
2023-02-27T00:53:57.601Z,99.90
2023-02-27T00:56:24.913Z,99.90
2023-02-27T00:58:52.024Z,99.90
2023-02-27T01:01:21.749Z,99.90
2023-02-27T01:03:48.940Z,99.90
2023-02-27T01:06:17.304Z,99.90
2023-02-27T01:08:44.380Z,99.90
2023-02-27T01:11:11.511Z,99.90
2023-02-27T01:13:38.699Z,99.90
2023-02-27T01:16:08.441Z,99.90
2023-02-27T01:18:35.551Z,99.90
2023-02-27T01:21:02.726Z,99.90
2023-02-27T01:23:29.920Z,99.90
2023-02-27T01:25:56.977Z,99.90
2023-02-27T01:28:24.121Z,99.90
2023-02-27T01:30:51.267Z,99.90
2023-02-27T01:33:18.437Z,99.90
2023-02-27T01:35:45.725Z,99.90
2023-02-27T01:38:12.834Z,99.90
2023-02-27T01:40:42.711Z,99.90
2023-02-27T01:43:17.171Z,99.90
2023-02-27T01:45:49.584Z,99.90
2023-02-27T01:48:23.224Z,99.90
2023-02-27T01:50:58.709Z,99.90
2023-02-27T01:53:29.008Z,99.90
2023-02-27T01:56:03.113Z,99.90
2023-02-27T01:58:31.316Z,99.90
2023-02-27T02:00:58.490Z,99.90
2023-02-27T02:03:50.671Z,99.90
2023-02-27T02:06:18.888Z,99.90
2023-02-27T02:08:48.893Z,99.90
2023-02-27T02:11:18.684Z,99.90
2023-02-27T02:13:45.928Z,99.90
2023-02-27T02:16:51.600Z,99.90
2023-02-27T02:19:48.190Z,99.90
2023-02-27T02:22:52.486Z,99.90
2023-02-27T02:25:31.365Z,99.90
2023-02-27T02:28:28.802Z,99.90
2023-02-27T02:31:45.233Z,99.90
2023-02-27T02:34:27.271Z,99.90
2023-02-27T02:37:18.890Z,99.90
2023-02-27T02:40:09.376Z,99.90
2023-02-27T02:43:07.814Z,99.90
2023-02-27T02:46:10.377Z,99.90
2023-02-27T02:49:03.674Z,99.90
2023-02-27T02:51:40.993Z,99.90
2023-02-27T02:54:32.795Z,99.90
2023-02-27T02:57:17.887Z,99.90
2023-02-27T03:00:00.015Z,99.90
2023-02-27T03:02:34.330Z,99.90
2023-02-27T03:05:36.872Z,99.90
2023-02-27T03:08:13.820Z,99.90
2023-02-27T03:11:01.692Z,99.90
2023-02-27T03:13:36.966Z,99.90
2023-02-27T03:16:10.296Z,99.90
2023-02-27T03:18:53.691Z,99.90
2023-02-27T03:21:31.068Z,99.90
2023-02-27T03:24:03.320Z,99.90
2023-02-27T03:26:40.051Z,99.90
2023-02-27T03:29:12.185Z,99.90
2023-02-27T03:32:03.768Z,99.90
2023-02-27T03:34:37.870Z,99.90
2023-02-27T03:37:33.020Z,99.90
2023-02-27T03:40:24.676Z,99.90
2023-02-27T03:43:01.042Z,99.90
2023-02-27T03:46:02.607Z,99.90
2023-02-27T03:48:30.222Z,99.90
2023-02-27T03:50:57.538Z,99.90
2023-02-27T03:53:51.778Z,99.90
2023-02-27T03:56:25.935Z,99.90
2023-02-27T03:58:54.078Z,99.90
2023-02-27T04:01:21.834Z,99.90
2023-02-27T04:03:59.501Z,99.90
2023-02-27T04:07:23.609Z,99.90
2023-02-27T04:10:21.671Z,99.90
2023-02-27T04:13:15.029Z,99.90
2023-02-27T04:15:48.172Z,99.90
2023-02-27T04:18:51.763Z,99.90
2023-02-27T04:21:25.471Z,99.90
2023-02-27T04:24:58.481Z,99.90
2023-02-27T04:27:45.397Z,99.90
2023-02-27T04:30:36.733Z,99.90
2023-02-27T04:33:15.140Z,99.90
2023-02-27T04:36:21.529Z,99.90
2023-02-27T04:39:18.069Z,99.90
2023-02-27T04:42:00.488Z,99.90
2023-02-27T04:44:30.313Z,99.90
2023-02-27T04:46:59.768Z,99.90
2023-02-27T04:49:35.777Z,99.90
2023-02-27T04:52:16.196Z,99.90
2023-02-27T04:55:00.368Z,99.90
2023-02-27T04:57:41.308Z,99.90
2023-02-27T05:00:12.051Z,99.90
2023-02-27T05:02:52.930Z,99.90
2023-02-27T05:05:25.765Z,99.90
2023-02-27T05:08:19.649Z,99.90
2023-02-27T05:10:58.744Z,99.90
2023-02-27T05:13:40.747Z,99.90
2023-02-27T05:16:21.011Z,99.90
2023-02-27T05:18:48.848Z,99.90
2023-02-27T05:21:31.266Z,99.90
2023-02-27T05:24:06.771Z,99.90
2023-02-27T05:27:03.557Z,99.90
2023-02-27T05:29:49.329Z,99.90
2023-02-27T05:32:36.795Z,99.90
2023-02-27T05:35:29.017Z,99.90
2023-02-27T05:38:07.893Z,99.90
2023-02-27T05:40:41.939Z,99.90
2023-02-27T05:43:59.702Z,99.90
2023-02-27T05:46:33.296Z,99.90
2023-02-27T05:49:23.745Z,99.90
2023-02-27T05:51:54.930Z,99.90
2023-02-27T05:54:48.838Z,99.90
2023-02-27T05:57:24.044Z,99.90
2023-02-27T06:00:21.522Z,99.90
2023-02-27T06:02:48.757Z,99.90
2023-02-27T06:05:18.516Z,99.90
2023-02-27T06:07:45.732Z,99.90
2023-02-27T06:10:19.887Z,99.90
2023-02-27T06:12:47.184Z,99.90
2023-02-27T06:15:14.550Z,99.90
2023-02-27T06:17:41.781Z,99.90
2023-02-27T06:20:10.354Z,99.90
2023-02-27T06:22:37.766Z,99.90
2023-02-27T06:25:05.497Z,99.90
2023-02-27T06:27:32.611Z,99.90
2023-02-27T06:29:59.765Z,99.90
2023-02-27T06:32:26.997Z,99.90
2023-02-27T06:34:54.318Z,99.90
2023-02-27T06:37:21.966Z,99.90
2023-02-27T06:39:49.226Z,99.90
2023-02-27T06:42:17.393Z,99.90
2023-02-27T06:44:44.677Z,99.90
2023-02-27T06:47:11.797Z,99.90
2023-02-27T06:49:39.196Z,99.90
2023-02-27T06:52:06.374Z,99.90
2023-02-27T06:54:34.035Z,99.90
2023-02-27T06:57:01.384Z,99.90
2023-02-27T06:59:28.585Z,99.90
2023-02-27T07:01:55.869Z,99.90
2023-02-27T07:04:23.243Z,99.90
2023-02-27T07:07:34.941Z,99.90
2023-02-27T07:09:37.648Z,99.90
2023-02-27T07:12:05.646Z,99.90
2023-02-27T07:14:32.827Z,99.90
2023-02-27T07:17:04.330Z,99.90
2023-02-27T07:19:33.752Z,99.90
2023-02-27T07:22:00.882Z,99.90
2023-02-27T07:24:28.124Z,99.90
2023-02-27T07:26:55.265Z,99.90
2023-02-27T07:29:22.480Z,99.90
2023-02-27T07:31:49.592Z,99.90
2023-02-27T07:34:16.851Z,99.90
2023-02-27T07:36:44.250Z,99.90
2023-02-27T07:39:13.278Z,99.90
2023-02-27T07:41:40.705Z,99.90
2023-02-27T07:44:08.662Z,99.90
2023-02-27T07:46:36.393Z,99.90
2023-02-27T07:49:03.684Z,99.90
2023-02-27T07:51:30.760Z,99.90
2023-02-27T07:53:59.005Z,99.90
2023-02-27T07:56:27.316Z,99.90
2023-02-27T07:58:54.664Z,99.90
2023-02-27T08:01:21.894Z,99.90
2023-02-27T08:03:49.046Z,99.90
2023-02-27T08:06:16.151Z,99.90
2023-02-27T08:08:43.407Z,99.90
2023-02-27T08:11:19.909Z,99.90
2023-02-27T08:14:03.201Z,99.90
2023-02-27T08:16:32.177Z,99.90
2023-02-27T08:19:00.903Z,99.90
2023-02-27T08:21:30.185Z,99.90
2023-02-27T08:23:57.518Z,99.90
2023-02-27T08:26:24.694Z,99.90
2023-02-27T08:28:52.184Z,99.90
2023-02-27T08:31:19.690Z,99.90
2023-02-27T08:33:48.295Z,99.90
2023-02-27T08:36:15.829Z,99.90
2023-02-27T08:38:43.351Z,99.90
2023-02-27T08:41:10.541Z,99.90
2023-02-27T08:43:37.682Z,99.90
2023-02-27T08:46:05.076Z,99.90
2023-02-27T08:48:32.261Z,99.90
2023-02-27T08:50:59.320Z,99.90
2023-02-27T08:53:26.564Z,99.90
2023-02-27T08:55:53.829Z,99.90
2023-02-27T08:58:21.201Z,99.90
2023-02-27T09:00:48.576Z,99.90
2023-02-27T09:03:15.723Z,99.90
2023-02-27T09:05:43.000Z,99.90
2023-02-27T09:08:10.076Z,99.90
2023-02-27T09:10:37.424Z,99.90
2023-02-27T09:13:04.905Z,99.90
2023-02-27T09:15:34.577Z,99.90
2023-02-27T09:18:03.262Z,99.90
2023-02-27T09:20:35.985Z,99.90
2023-02-27T09:23:04.490Z,99.90
2023-02-27T09:25:31.629Z,99.90
2023-02-27T09:27:59.167Z,99.90
2023-02-27T09:30:27.104Z,99.90
2023-02-27T09:32:54.477Z,99.90
2023-02-27T09:35:21.876Z,99.90
2023-02-27T09:37:49.612Z,99.90
2023-02-27T09:40:30.908Z,99.90
2023-02-27T09:43:14.523Z,99.90
2023-02-27T09:45:42.223Z,99.90
2023-02-27T09:48:54.368Z,99.90
2023-02-27T09:51:22.897Z,99.90
2023-02-27T09:53:54.425Z,99.90
2023-02-27T09:56:47.898Z,99.90
2023-02-27T09:59:43.036Z,99.90
2023-02-27T10:02:40.671Z,99.90
2023-02-27T10:05:35.915Z,99.90
2023-02-27T10:08:29.936Z,99.90
2023-02-27T10:11:15.822Z,99.90
2023-02-27T10:14:07.403Z,99.90
2023-02-27T10:16:36.171Z,99.90
2023-02-27T10:19:14.144Z,99.90
2023-02-27T10:21:46.813Z,99.60
2023-02-27T10:24:39.936Z,97.30
2023-02-27T10:27:16.818Z,96.50
2023-02-27T10:29:44.139Z,95.40
2023-02-27T10:32:37.945Z,93.90
2023-02-27T10:35:34.593Z,93.10
2023-02-27T10:38:17.898Z,90.70
2023-02-27T10:40:46.392Z,89.10
2023-02-27T10:43:18.462Z,90.00
2023-02-27T10:45:45.632Z,87.50
2023-02-27T10:48:13.353Z,85.60
2023-02-27T10:50:45.381Z,80.50
2023-02-27T10:53:25.896Z,81.30
2023-02-27T10:56:02.096Z,78.40
2023-02-27T10:58:34.691Z,76.20
2023-02-27T11:01:09.123Z,79.00
2023-02-27T11:03:42.838Z,81.10
2023-02-27T11:06:14.029Z,84.80
2023-02-27T11:08:41.080Z,89.20
2023-02-27T11:11:11.806Z,90.20
2023-02-27T11:13:42.892Z,87.50
2023-02-27T11:16:21.772Z,84.50
2023-02-27T11:18:51.677Z,81.70
2023-02-27T11:21:29.430Z,79.30
2023-02-27T11:24:10.664Z,80.40
2023-02-27T11:26:41.342Z,77.50
2023-02-27T11:29:18.867Z,76.40
2023-02-27T11:31:54.878Z,74.40
2023-02-27T11:34:33.065Z,75.90
2023-02-27T11:37:26.937Z,79.40
2023-02-27T11:40:12.855Z,81.80
2023-02-27T11:42:53.770Z,83.80
2023-02-27T11:46:13.279Z,79.10
2023-02-27T11:48:23.231Z,76.10
2023-02-27T11:51:18.394Z,70.50
2023-02-27T11:54:07.100Z,69.30
2023-02-27T11:56:47.597Z,68.10
2023-02-27T11:59:43.506Z,65.40
2023-02-27T12:02:43.356Z,63.70
2023-02-27T12:05:44.370Z,61.90
2023-02-27T12:08:36.826Z,60.40
2023-02-27T12:11:14.129Z,60.80
2023-02-27T12:13:48.398Z,59.20
2023-02-27T12:16:46.967Z,58.80
2023-02-27T12:19:31.649Z,57.50
2023-02-27T12:22:06.150Z,55.70
2023-02-27T12:24:48.422Z,55.70
2023-02-27T12:27:28.025Z,54.40
2023-02-27T12:30:05.962Z,54.60
2023-02-27T12:32:50.306Z,53.60
2023-02-27T12:35:33.278Z,53.40
2023-02-27T12:38:01.538Z,52.50
2023-02-27T12:40:37.924Z,51.60
2023-02-27T12:43:38.019Z,51.50
2023-02-27T12:46:16.432Z,50.20
2023-02-27T12:49:15.934Z,51.30
2023-02-27T12:52:04.444Z,50.70
2023-02-27T12:55:04.661Z,48.20
2023-02-27T12:58:16.330Z,50.10
2023-02-27T13:00:48.679Z,52.00
2023-02-27T13:03:54.461Z,56.00
2023-02-27T13:06:27.783Z,60.90
2023-02-27T13:09:41.625Z,61.90
2023-02-27T13:12:28.501Z,62.90
2023-02-27T13:15:23.872Z,63.90
2023-02-27T13:18:18.912Z,64.70
2023-02-27T13:21:20.943Z,64.30
2023-02-27T13:24:07.303Z,63.50
2023-02-27T13:26:44.223Z,57.70
2023-02-27T13:29:16.409Z,55.00
2023-02-27T13:31:55.735Z,52.40
2023-02-27T13:34:45.719Z,51.60
2023-02-27T13:37:13.207Z,51.30
2023-02-27T13:39:47.186Z,52.80
2023-02-27T13:42:27.123Z,53.00
2023-02-27T13:45:01.390Z,52.80
2023-02-27T13:47:47.494Z,52.60
2023-02-27T13:50:18.048Z,52.90
2023-02-27T13:52:47.013Z,54.00
2023-02-27T13:55:31.940Z,55.10
2023-02-27T13:58:01.185Z,55.90
2023-02-27T14:00:32.620Z,56.90
2023-02-27T14:03:19.564Z,58.70
2023-02-27T14:05:48.861Z,59.40
2023-02-27T14:08:22.773Z,59.10
2023-02-27T14:11:39.994Z,59.00
2023-02-27T14:14:49.097Z,60.00
2023-02-27T14:17:38.223Z,62.50
2023-02-27T14:20:32.151Z,64.00
2023-02-27T14:23:20.673Z,66.50
2023-02-27T14:25:57.138Z,67.50
2023-02-27T14:28:55.871Z,68.50
2023-02-27T14:31:27.313Z,69.70
2023-02-27T14:33:59.148Z,70.80
2023-02-27T14:36:30.484Z,70.90
2023-02-27T14:39:00.647Z,72.20
2023-02-27T14:41:48.705Z,72.30
2023-02-27T14:44:27.943Z,72.60
2023-02-27T14:46:57.577Z,72.70
2023-02-27T14:49:34.230Z,72.50
2023-02-27T14:52:24.125Z,72.60
2023-02-27T14:54:53.571Z,72.90
2023-02-27T14:57:26.814Z,73.00
2023-02-27T14:59:55.256Z,73.00
2023-02-27T15:02:36.030Z,73.50
2023-02-27T15:05:03.659Z,73.90
2023-02-27T15:07:34.152Z,74.30
2023-02-27T15:10:05.549Z,74.90
2023-02-27T15:12:39.360Z,75.70
2023-02-27T15:15:09.895Z,75.90
2023-02-27T15:17:43.603Z,76.20
2023-02-27T15:20:30.292Z,76.30
2023-02-27T15:23:02.228Z,76.70
2023-02-27T15:25:34.786Z,76.10
2023-02-27T15:28:23.878Z,76.90
2023-02-27T15:30:54.138Z,77.60
2023-02-27T15:33:29.405Z,78.20
2023-02-27T15:35:58.533Z,78.00
2023-02-27T15:38:34.689Z,78.40
2023-02-27T15:41:04.069Z,78.70
2023-02-27T15:43:32.561Z,79.40
2023-02-27T15:46:00.237Z,79.20
2023-02-27T15:48:27.977Z,79.40
2023-02-27T15:51:01.143Z,79.70
2023-02-27T15:53:34.134Z,79.80
2023-02-27T15:56:06.814Z,80.10
2023-02-27T15:58:49.026Z,80.70
2023-02-27T16:01:35.226Z,80.90
2023-02-27T16:04:06.965Z,82.00
2023-02-27T16:06:39.240Z,82.60
2023-02-27T16:09:19.411Z,83.20
2023-02-27T16:11:47.030Z,83.70
2023-02-27T16:14:42.422Z,85.50
2023-02-27T16:17:31.582Z,85.80
2023-02-27T16:20:21.231Z,88.50
2023-02-27T16:23:16.974Z,89.50
2023-02-27T16:26:26.492Z,90.20
2023-02-27T16:29:02.627Z,90.50
2023-02-27T16:31:39.520Z,91.00
2023-02-27T16:34:13.295Z,91.40
2023-02-27T16:36:43.904Z,91.90
2023-02-27T16:39:13.409Z,92.30
2023-02-27T16:41:40.856Z,93.10
2023-02-27T16:44:08.777Z,93.30
2023-02-27T16:46:36.790Z,95.00
2023-02-27T16:49:17.881Z,95.40
2023-02-27T16:51:50.349Z,95.50
2023-02-27T16:54:18.742Z,96.00
2023-02-27T16:56:47.425Z,96.30
2023-02-27T16:59:36.273Z,97.00
2023-02-27T17:02:13.413Z,97.30
2023-02-27T17:04:46.942Z,97.80
2023-02-27T17:07:20.389Z,98.20
2023-02-27T17:09:48.498Z,98.60
2023-02-27T17:12:16.071Z,98.80
2023-02-27T17:14:43.725Z,99.20
2023-02-27T17:17:11.566Z,99.70
2023-02-27T17:19:39.493Z,99.90
2023-02-27T17:22:06.981Z,99.90
2023-02-27T17:24:34.486Z,99.90
2023-02-27T17:27:01.955Z,99.90
2023-02-27T17:29:29.618Z,99.90
2023-02-27T17:31:57.616Z,99.90
2023-02-27T17:34:25.144Z,99.90
2023-02-27T17:36:53.328Z,99.90
2023-02-27T17:39:20.779Z,99.90
2023-02-27T17:41:48.152Z,99.90
2023-02-27T17:44:15.542Z,99.90
2023-02-27T17:46:42.842Z,99.90
2023-02-27T17:49:10.431Z,99.90
2023-02-27T17:51:37.940Z,99.90
2023-02-27T17:54:06.900Z,99.90
2023-02-27T17:56:36.775Z,99.90
2023-02-27T17:59:05.446Z,99.90
2023-02-27T18:01:32.958Z,99.90
2023-02-27T18:04:00.317Z,99.90
2023-02-27T18:06:28.732Z,99.90
2023-02-27T18:08:56.388Z,99.90
2023-02-27T18:11:23.708Z,99.90
2023-02-27T18:13:51.308Z,99.90
2023-02-27T18:16:21.948Z,99.90
2023-02-27T18:18:50.059Z,99.90
2023-02-27T18:21:21.350Z,99.90
2023-02-27T18:23:50.325Z,99.90
2023-02-27T18:26:35.826Z,99.90
2023-02-27T18:29:07.772Z,99.90
2023-02-27T18:31:42.873Z,99.90
2023-02-27T18:34:10.840Z,99.90
2023-02-27T18:36:38.632Z,99.90
2023-02-27T18:39:06.373Z,99.90
2023-02-27T18:41:34.641Z,99.90
2023-02-27T18:44:01.751Z,99.90
2023-02-27T18:46:29.563Z,99.90
2023-02-27T18:48:56.896Z,99.90
2023-02-27T18:51:24.580Z,99.90
2023-02-27T18:53:52.098Z,99.90
2023-02-27T18:56:24.032Z,99.90
2023-02-27T18:58:52.893Z,99.90
2023-02-27T19:01:33.166Z,99.90
2023-02-27T19:04:05.793Z,99.90
2023-02-27T19:06:38.882Z,99.90
2023-02-27T19:09:11.334Z,99.90
2023-02-27T19:11:38.823Z,99.90
2023-02-27T19:14:09.142Z,99.90
2023-02-27T19:16:36.617Z,99.90
2023-02-27T19:19:04.954Z,99.90
2023-02-27T19:21:32.637Z,99.90
2023-02-27T19:24:00.700Z,99.90
2023-02-27T19:26:28.683Z,99.90
2023-02-27T19:28:56.326Z,99.90
2023-02-27T19:31:25.121Z,99.90
2023-02-27T19:33:52.643Z,99.90
2023-02-27T19:36:21.902Z,99.90
2023-02-27T19:38:49.441Z,99.90
2023-02-27T19:41:17.359Z,99.90
2023-02-27T19:43:45.758Z,99.90
2023-02-27T19:46:20.163Z,99.90
2023-02-27T19:48:48.202Z,99.90
2023-02-27T19:51:16.293Z,99.90
2023-02-27T19:53:48.220Z,99.90
2023-02-27T19:56:26.939Z,99.90
2023-02-27T19:58:54.519Z,99.90
2023-02-27T20:01:34.316Z,99.90
2023-02-27T20:04:02.769Z,99.90
2023-02-27T20:06:33.388Z,99.90
2023-02-27T20:09:00.556Z,99.90
2023-02-27T20:11:31.887Z,99.90
2023-02-27T20:13:59.154Z,99.90
2023-02-27T20:16:28.799Z,99.90
2023-02-27T20:18:56.777Z,99.90
2023-02-27T20:21:26.806Z,99.90
2023-02-27T20:23:54.706Z,99.90
2023-02-27T20:26:28.671Z,99.90
2023-02-27T20:28:59.734Z,99.90
2023-02-27T20:31:29.680Z,99.90
2023-02-27T20:33:58.048Z,99.90
2023-02-27T20:36:25.483Z,99.90
2023-02-27T20:38:52.765Z,99.90
2023-02-27T20:41:22.855Z,99.90
2023-02-27T20:43:50.145Z,99.90
2023-02-27T20:46:22.089Z,99.90
2023-02-27T20:48:49.632Z,99.90
2023-02-27T20:51:21.807Z,99.90
2023-02-27T20:53:56.085Z,99.90
2023-02-27T20:56:27.360Z,99.90
2023-02-27T20:58:59.792Z,99.90
2023-02-27T21:01:28.006Z,99.90
2023-02-27T21:03:58.253Z,99.90
2023-02-27T21:06:26.511Z,99.90
2023-02-27T21:08:56.516Z,99.90
2023-02-27T21:11:29.212Z,99.90
2023-02-27T21:14:02.042Z,99.90
2023-02-27T21:16:30.591Z,99.90
2023-02-27T21:18:58.978Z,99.90
2023-02-27T21:21:30.665Z,99.90
2023-02-27T21:23:59.626Z,99.90
2023-02-27T21:26:37.948Z,99.90
2023-02-27T21:29:10.551Z,99.90
2023-02-27T21:31:39.741Z,99.90
2023-02-27T21:34:12.649Z,99.90
2023-02-27T21:36:42.628Z,99.90
2023-02-27T21:39:16.025Z,99.90
2023-02-27T21:41:43.362Z,99.90
2023-02-27T21:44:15.220Z,99.90
2023-02-27T21:46:42.888Z,99.90
2023-02-27T21:49:17.492Z,99.90
2023-02-27T21:51:45.263Z,99.90
2023-02-27T21:54:14.363Z,99.90
2023-02-27T21:56:43.295Z,99.90
2023-02-27T21:59:10.711Z,99.90
2023-02-27T22:01:38.683Z,99.90
2023-02-27T22:04:06.757Z,99.90
2023-02-27T22:06:35.154Z,99.90
2023-02-27T22:09:05.927Z,99.90
2023-02-27T22:11:34.394Z,99.90
2023-02-27T22:14:02.973Z,99.90
2023-02-27T22:16:30.185Z,99.90
2023-02-27T22:18:57.345Z,99.90
2023-02-27T22:21:27.780Z,99.90
2023-02-27T22:23:57.735Z,99.90
2023-02-27T22:26:28.286Z,99.90
2023-02-27T22:28:57.109Z,99.90
2023-02-27T22:31:31.658Z,99.90
2023-02-27T22:34:06.870Z,99.90
2023-02-27T22:36:35.014Z,99.90
2023-02-27T22:39:03.513Z,99.90
2023-02-27T22:41:34.580Z,99.90
2023-02-27T22:44:02.602Z,99.90
2023-02-27T22:46:33.436Z,99.90
2023-02-27T22:49:22.604Z,99.90
2023-02-27T22:51:51.900Z,99.90
2023-02-27T22:54:22.703Z,99.90
2023-02-27T22:56:52.407Z,99.90
2023-02-27T22:59:20.349Z,99.90
2023-02-27T23:01:48.586Z,99.90
2023-02-27T23:04:19.664Z,99.90
2023-02-27T23:06:46.928Z,99.90
2023-02-27T23:09:18.641Z,99.90
2023-02-27T23:11:46.243Z,99.90
2023-02-27T23:14:14.129Z,99.90
2023-02-27T23:16:45.891Z,99.90
2023-02-27T23:19:16.114Z,99.90
2023-02-27T23:21:43.244Z,99.90
2023-02-27T23:24:16.053Z,99.90
2023-02-27T23:26:47.415Z,99.90
2023-02-27T23:29:15.074Z,99.90
2023-02-27T23:31:42.533Z,99.90
2023-02-27T23:34:10.071Z,99.90
2023-02-27T23:36:38.552Z,99.90
2023-02-27T23:39:07.398Z,99.90
2023-02-27T23:41:34.916Z,99.90
2023-02-27T23:44:20.981Z,99.90
2023-02-27T23:46:48.127Z,99.90
2023-02-27T23:49:15.349Z,99.90
2023-02-27T23:51:42.431Z,99.90
2023-02-27T23:54:10.507Z,99.90
2023-02-27T23:56:37.601Z,99.90
2023-02-27T23:59:06.567Z,99.90
